sensor_id;sensor_type;location;lat;lon;timestamp;P1;durP1;ratioP1;P2;durP2;ratioP2
179;SDS011;78;48.788;9.010;2022-11-14T00:01:05;34.60;;;13.00;;
179;SDS011;78;48.788;9.010;2022-11-14T00:03:31;34.53;;;13.40;;
179;SDS011;78;48.788;9.010;2022-11-14T00:05:57;34.33;;;14.57;;
179;SDS011;78;48.788;9.010;2022-11-14T00:08:23;33.53;;;13.90;;
179;SDS011;78;48.788;9.010;2022-11-14T00:10:49;36.73;;;14.13;;
179;SDS011;78;48.788;9.010;2022-11-14T00:13:16;34.13;;;13.93;;
179;SDS011;78;48.788;9.010;2022-11-14T00:15:42;30.73;;;12.50;;
179;SDS011;78;48.788;9.010;2022-11-14T00:18:09;32.20;;;13.53;;
179;SDS011;78;48.788;9.010;2022-11-14T00:20:35;33.30;;;13.90;;
179;SDS011;78;48.788;9.010;2022-11-14T00:23:01;31.50;;;13.33;;
179;SDS011;78;48.788;9.010;2022-11-14T00:25:27;35.33;;;14.20;;
179;SDS011;78;48.788;9.010;2022-11-14T00:27:55;32.47;;;12.60;;
179;SDS011;78;48.788;9.010;2022-11-14T00:30:22;34.13;;;14.83;;
179;SDS011;78;48.788;9.010;2022-11-14T00:32:48;32.47;;;13.33;;
179;SDS011;78;48.788;9.010;2022-11-14T00:35:14;34.70;;;14.00;;
179;SDS011;78;48.788;9.010;2022-11-14T00:37:40;36.00;;;14.87;;
179;SDS011;78;48.788;9.010;2022-11-14T00:40:06;35.07;;;13.53;;
179;SDS011;78;48.788;9.010;2022-11-14T00:42:33;30.17;;;12.33;;
179;SDS011;78;48.788;9.010;2022-11-14T00:44:59;35.40;;;14.43;;
179;SDS011;78;48.788;9.010;2022-11-14T00:47:25;34.70;;;14.50;;
179;SDS011;78;48.788;9.010;2022-11-14T00:49:51;31.53;;;13.20;;
179;SDS011;78;48.788;9.010;2022-11-14T00:52:17;32.80;;;13.90;;
179;SDS011;78;48.788;9.010;2022-11-14T00:54:43;31.77;;;13.73;;
179;SDS011;78;48.788;9.010;2022-11-14T00:57:09;33.60;;;14.17;;
179;SDS011;78;48.788;9.010;2022-11-14T00:59:35;32.20;;;13.07;;
179;SDS011;78;48.788;9.010;2022-11-14T01:02:01;31.17;;;12.90;;
179;SDS011;78;48.788;9.010;2022-11-14T01:04:27;32.83;;;14.10;;
179;SDS011;78;48.788;9.010;2022-11-14T01:06:53;34.20;;;14.67;;
179;SDS011;78;48.788;9.010;2022-11-14T01:09:20;31.30;;;13.00;;
179;SDS011;78;48.788;9.010;2022-11-14T01:11:46;34.30;;;14.00;;
179;SDS011;78;48.788;9.010;2022-11-14T01:14:12;31.67;;;13.30;;
179;SDS011;78;48.788;9.010;2022-11-14T01:16:38;36.00;;;15.00;;
179;SDS011;78;48.788;9.010;2022-11-14T01:19:04;38.20;;;15.53;;
179;SDS011;78;48.788;9.010;2022-11-14T01:21:30;32.40;;;13.73;;
179;SDS011;78;48.788;9.010;2022-11-14T01:23:56;33.87;;;14.10;;
179;SDS011;78;48.788;9.010;2022-11-14T01:26:22;34.20;;;14.57;;
179;SDS011;78;48.788;9.010;2022-11-14T01:28:48;37.87;;;14.40;;
179;SDS011;78;48.788;9.010;2022-11-14T01:31:21;35.33;;;14.50;;
179;SDS011;78;48.788;9.010;2022-11-14T01:33:48;35.60;;;15.30;;
179;SDS011;78;48.788;9.010;2022-11-14T01:36:14;35.30;;;14.50;;
179;SDS011;78;48.788;9.010;2022-11-14T01:38:40;37.57;;;14.47;;
179;SDS011;78;48.788;9.010;2022-11-14T01:41:06;37.90;;;14.60;;
179;SDS011;78;48.788;9.010;2022-11-14T01:43:34;33.77;;;14.17;;
179;SDS011;78;48.788;9.010;2022-11-14T01:46:04;34.77;;;14.60;;
179;SDS011;78;48.788;9.010;2022-11-14T01:51:15;34.10;;;13.90;;
179;SDS011;78;48.788;9.010;2022-11-14T01:53:42;32.07;;;13.60;;
179;SDS011;78;48.788;9.010;2022-11-14T01:56:10;33.67;;;13.20;;
179;SDS011;78;48.788;9.010;2022-11-14T01:58:37;33.20;;;14.10;;
179;SDS011;78;48.788;9.010;2022-11-14T02:01:06;33.83;;;14.03;;
179;SDS011;78;48.788;9.010;2022-11-14T02:03:33;31.40;;;13.07;;
179;SDS011;78;48.788;9.010;2022-11-14T02:06:00;32.93;;;13.43;;
179;SDS011;78;48.788;9.010;2022-11-14T02:08:27;32.17;;;13.60;;
179;SDS011;78;48.788;9.010;2022-11-14T02:10:53;32.87;;;13.10;;
179;SDS011;78;48.788;9.010;2022-11-14T02:13:19;31.47;;;13.03;;
179;SDS011;78;48.788;9.010;2022-11-14T02:15:46;32.27;;;12.53;;
179;SDS011;78;48.788;9.010;2022-11-14T02:18:14;31.43;;;13.37;;
179;SDS011;78;48.788;9.010;2022-11-14T02:20:40;32.23;;;12.57;;
179;SDS011;78;48.788;9.010;2022-11-14T02:23:08;32.13;;;12.97;;
179;SDS011;78;48.788;9.010;2022-11-14T02:25:34;31.10;;;13.00;;
179;SDS011;78;48.788;9.010;2022-11-14T02:28:00;33.23;;;14.07;;
179;SDS011;78;48.788;9.010;2022-11-14T02:30:27;32.40;;;13.33;;
179;SDS011;78;48.788;9.010;2022-11-14T02:32:53;32.17;;;13.30;;
179;SDS011;78;48.788;9.010;2022-11-14T02:35:19;30.77;;;12.60;;
179;SDS011;78;48.788;9.010;2022-11-14T02:37:45;34.97;;;12.90;;
179;SDS011;78;48.788;9.010;2022-11-14T02:40:11;30.83;;;12.83;;
179;SDS011;78;48.788;9.010;2022-11-14T02:42:37;33.53;;;13.60;;
179;SDS011;78;48.788;9.010;2022-11-14T02:45:03;33.70;;;13.30;;
179;SDS011;78;48.788;9.010;2022-11-14T02:47:29;32.57;;;13.80;;
179;SDS011;78;48.788;9.010;2022-11-14T02:49:55;33.53;;;13.70;;
179;SDS011;78;48.788;9.010;2022-11-14T02:52:21;32.10;;;13.20;;
179;SDS011;78;48.788;9.010;2022-11-14T02:54:47;34.50;;;13.87;;
179;SDS011;78;48.788;9.010;2022-11-14T02:57:13;32.83;;;13.90;;
179;SDS011;78;48.788;9.010;2022-11-14T02:59:39;33.40;;;14.03;;
179;SDS011;78;48.788;9.010;2022-11-14T03:02:04;33.20;;;14.00;;
179;SDS011;78;48.788;9.010;2022-11-14T03:04:30;34.00;;;14.43;;
179;SDS011;78;48.788;9.010;2022-11-14T03:06:56;35.70;;;13.80;;
179;SDS011;78;48.788;9.010;2022-11-14T03:09:22;34.60;;;13.93;;
179;SDS011;78;48.788;9.010;2022-11-14T03:11:48;34.63;;;14.57;;
179;SDS011;78;48.788;9.010;2022-11-14T03:14:14;33.87;;;13.70;;
179;SDS011;78;48.788;9.010;2022-11-14T03:16:40;34.73;;;15.13;;
179;SDS011;78;48.788;9.010;2022-11-14T03:19:06;36.50;;;14.93;;
179;SDS011;78;48.788;9.010;2022-11-14T03:21:33;36.50;;;15.13;;
179;SDS011;78;48.788;9.010;2022-11-14T03:23:59;35.00;;;14.70;;
179;SDS011;78;48.788;9.010;2022-11-14T03:26:26;39.17;;;15.67;;
179;SDS011;78;48.788;9.010;2022-11-14T03:28:52;37.77;;;14.40;;
179;SDS011;78;48.788;9.010;2022-11-14T03:31:21;35.13;;;14.43;;
179;SDS011;78;48.788;9.010;2022-11-14T03:33:47;34.47;;;13.80;;
179;SDS011;78;48.788;9.010;2022-11-14T03:36:13;33.83;;;14.40;;
179;SDS011;78;48.788;9.010;2022-11-14T03:38:41;34.63;;;14.17;;
179;SDS011;78;48.788;9.010;2022-11-14T03:41:07;32.73;;;13.27;;
179;SDS011;78;48.788;9.010;2022-11-14T03:43:33;32.30;;;13.67;;
179;SDS011;78;48.788;9.010;2022-11-14T03:46:00;36.77;;;15.17;;
179;SDS011;78;48.788;9.010;2022-11-14T03:48:28;39.20;;;16.47;;
179;SDS011;78;48.788;9.010;2022-11-14T03:50:54;34.60;;;13.67;;
179;SDS011;78;48.788;9.010;2022-11-14T03:53:20;33.17;;;13.27;;
179;SDS011;78;48.788;9.010;2022-11-14T03:55:46;32.50;;;12.97;;
179;SDS011;78;48.788;9.010;2022-11-14T03:58:12;37.17;;;13.57;;
179;SDS011;78;48.788;9.010;2022-11-14T04:00:40;35.20;;;14.43;;
179;SDS011;78;48.788;9.010;2022-11-14T04:03:06;36.10;;;14.93;;
179;SDS011;78;48.788;9.010;2022-11-14T04:05:32;38.87;;;13.87;;
179;SDS011;78;48.788;9.010;2022-11-14T04:07:58;31.53;;;12.67;;
179;SDS011;78;48.788;9.010;2022-11-14T04:10:24;36.33;;;15.23;;
179;SDS011;78;48.788;9.010;2022-11-14T04:12:51;35.53;;;14.93;;
179;SDS011;78;48.788;9.010;2022-11-14T04:15:18;34.47;;;14.50;;
179;SDS011;78;48.788;9.010;2022-11-14T04:17:45;31.73;;;13.30;;
179;SDS011;78;48.788;9.010;2022-11-14T04:20:11;33.40;;;13.77;;
179;SDS011;78;48.788;9.010;2022-11-14T04:22:38;35.47;;;13.50;;
179;SDS011;78;48.788;9.010;2022-11-14T04:25:05;32.93;;;13.13;;
179;SDS011;78;48.788;9.010;2022-11-14T04:27:31;35.00;;;13.87;;
179;SDS011;78;48.788;9.010;2022-11-14T04:29:57;34.87;;;14.30;;
179;SDS011;78;48.788;9.010;2022-11-14T04:32:23;31.83;;;12.90;;
179;SDS011;78;48.788;9.010;2022-11-14T04:34:49;34.07;;;13.40;;
179;SDS011;78;48.788;9.010;2022-11-14T04:37:15;32.10;;;12.80;;
179;SDS011;78;48.788;9.010;2022-11-14T04:39:41;30.60;;;12.57;;
179;SDS011;78;48.788;9.010;2022-11-14T04:42:07;32.73;;;14.03;;
179;SDS011;78;48.788;9.010;2022-11-14T04:44:33;32.17;;;13.53;;
179;SDS011;78;48.788;9.010;2022-11-14T04:46:59;32.97;;;13.00;;
179;SDS011;78;48.788;9.010;2022-11-14T04:49:25;35.83;;;14.53;;
179;SDS011;78;48.788;9.010;2022-11-14T04:51:51;33.13;;;13.00;;
179;SDS011;78;48.788;9.010;2022-11-14T04:54:17;32.97;;;13.50;;
179;SDS011;78;48.788;9.010;2022-11-14T04:56:43;33.20;;;13.37;;
179;SDS011;78;48.788;9.010;2022-11-14T04:59:09;30.00;;;12.07;;
179;SDS011;78;48.788;9.010;2022-11-14T05:01:34;32.73;;;12.77;;
179;SDS011;78;48.788;9.010;2022-11-14T05:04:00;35.40;;;12.03;;
179;SDS011;78;48.788;9.010;2022-11-14T05:06:26;31.70;;;12.30;;
179;SDS011;78;48.788;9.010;2022-11-14T05:08:52;30.40;;;11.93;;
179;SDS011;78;48.788;9.010;2022-11-14T05:11:18;33.47;;;12.60;;
179;SDS011;78;48.788;9.010;2022-11-14T05:13:46;29.73;;;11.43;;
179;SDS011;78;48.788;9.010;2022-11-14T05:16:12;30.27;;;12.03;;
179;SDS011;78;48.788;9.010;2022-11-14T05:18:38;29.90;;;11.50;;
179;SDS011;78;48.788;9.010;2022-11-14T05:21:04;28.60;;;11.27;;
179;SDS011;78;48.788;9.010;2022-11-14T05:23:31;37.33;;;12.30;;
179;SDS011;78;48.788;9.010;2022-11-14T05:26:00;30.10;;;11.30;;
179;SDS011;78;48.788;9.010;2022-11-14T05:28:27;35.03;;;13.37;;
179;SDS011;78;48.788;9.010;2022-11-14T05:30:58;29.40;;;11.80;;
179;SDS011;78;48.788;9.010;2022-11-14T05:33:24;31.30;;;11.70;;
179;SDS011;78;48.788;9.010;2022-11-14T05:35:50;30.27;;;11.80;;
179;SDS011;78;48.788;9.010;2022-11-14T05:38:16;31.27;;;11.80;;
179;SDS011;78;48.788;9.010;2022-11-14T05:40:42;31.30;;;12.90;;
179;SDS011;78;48.788;9.010;2022-11-14T05:43:08;29.90;;;12.03;;
179;SDS011;78;48.788;9.010;2022-11-14T05:45:35;34.07;;;12.83;;
179;SDS011;78;48.788;9.010;2022-11-14T05:48:01;30.97;;;11.97;;
179;SDS011;78;48.788;9.010;2022-11-14T05:50:27;33.90;;;11.77;;
179;SDS011;78;48.788;9.010;2022-11-14T05:52:54;33.70;;;13.33;;
179;SDS011;78;48.788;9.010;2022-11-14T05:55:20;32.90;;;13.00;;
179;SDS011;78;48.788;9.010;2022-11-14T05:57:47;30.07;;;11.57;;
179;SDS011;78;48.788;9.010;2022-11-14T06:00:13;33.50;;;12.23;;
179;SDS011;78;48.788;9.010;2022-11-14T06:02:40;30.60;;;11.30;;
179;SDS011;78;48.788;9.010;2022-11-14T06:05:06;31.70;;;12.43;;
179;SDS011;78;48.788;9.010;2022-11-14T06:07:32;30.30;;;11.73;;
179;SDS011;78;48.788;9.010;2022-11-14T06:09:59;31.53;;;12.20;;
179;SDS011;78;48.788;9.010;2022-11-14T06:12:25;29.67;;;11.70;;
179;SDS011;78;48.788;9.010;2022-11-14T06:14:51;30.90;;;12.30;;
179;SDS011;78;48.788;9.010;2022-11-14T06:17:18;31.67;;;12.50;;
179;SDS011;78;48.788;9.010;2022-11-14T06:19:45;31.80;;;12.40;;
179;SDS011;78;48.788;9.010;2022-11-14T06:22:11;31.47;;;11.03;;
179;SDS011;78;48.788;9.010;2022-11-14T06:24:38;31.73;;;11.83;;
179;SDS011;78;48.788;9.010;2022-11-14T06:27:04;33.90;;;13.60;;
179;SDS011;78;48.788;9.010;2022-11-14T06:29:31;30.33;;;11.80;;
179;SDS011;78;48.788;9.010;2022-11-14T06:31:57;30.27;;;11.63;;
179;SDS011;78;48.788;9.010;2022-11-14T06:34:23;30.80;;;11.00;;
179;SDS011;78;48.788;9.010;2022-11-14T06:36:50;30.33;;;12.10;;
179;SDS011;78;48.788;9.010;2022-11-14T06:39:17;31.43;;;11.30;;
179;SDS011;78;48.788;9.010;2022-11-14T06:41:43;29.40;;;12.23;;
179;SDS011;78;48.788;9.010;2022-11-14T06:44:09;29.77;;;10.90;;
179;SDS011;78;48.788;9.010;2022-11-14T06:46:36;35.07;;;14.20;;
179;SDS011;78;48.788;9.010;2022-11-14T06:49:02;34.53;;;13.40;;
179;SDS011;78;48.788;9.010;2022-11-14T06:51:28;33.33;;;13.40;;
179;SDS011;78;48.788;9.010;2022-11-14T06:53:54;36.43;;;14.40;;
179;SDS011;78;48.788;9.010;2022-11-14T06:56:21;39.37;;;14.80;;
179;SDS011;78;48.788;9.010;2022-11-14T06:58:47;38.07;;;15.73;;
179;SDS011;78;48.788;9.010;2022-11-14T07:01:16;37.50;;;15.03;;
179;SDS011;78;48.788;9.010;2022-11-14T07:03:42;40.90;;;15.77;;
179;SDS011;78;48.788;9.010;2022-11-14T07:06:09;38.90;;;15.00;;
179;SDS011;78;48.788;9.010;2022-11-14T07:08:35;37.50;;;15.27;;
179;SDS011;78;48.788;9.010;2022-11-14T07:11:05;38.00;;;14.80;;
179;SDS011;78;48.788;9.010;2022-11-14T07:13:32;34.30;;;13.70;;
179;SDS011;78;48.788;9.010;2022-11-14T07:15:59;35.70;;;15.10;;
179;SDS011;78;48.788;9.010;2022-11-14T07:18:25;38.27;;;14.30;;
179;SDS011;78;48.788;9.010;2022-11-14T07:21:01;37.07;;;15.30;;
179;SDS011;78;48.788;9.010;2022-11-14T07:23:27;36.53;;;15.10;;
179;SDS011;78;48.788;9.010;2022-11-14T07:25:53;37.60;;;14.53;;
179;SDS011;78;48.788;9.010;2022-11-14T07:28:19;37.63;;;14.87;;
179;SDS011;78;48.788;9.010;2022-11-14T07:30:45;36.53;;;15.23;;
179;SDS011;78;48.788;9.010;2022-11-14T07:33:11;33.33;;;13.73;;
179;SDS011;78;48.788;9.010;2022-11-14T07:35:40;31.87;;;13.13;;
179;SDS011;78;48.788;9.010;2022-11-14T07:38:06;32.80;;;13.30;;
179;SDS011;78;48.788;9.010;2022-11-14T07:40:32;34.37;;;13.80;;
179;SDS011;78;48.788;9.010;2022-11-14T07:42:58;34.17;;;13.20;;
179;SDS011;78;48.788;9.010;2022-11-14T07:45:25;35.03;;;13.73;;
179;SDS011;78;48.788;9.010;2022-11-14T07:47:55;33.33;;;13.10;;
179;SDS011;78;48.788;9.010;2022-11-14T07:50:21;34.97;;;13.97;;
179;SDS011;78;48.788;9.010;2022-11-14T07:52:50;33.70;;;12.90;;
179;SDS011;78;48.788;9.010;2022-11-14T07:55:17;37.30;;;14.73;;
179;SDS011;78;48.788;9.010;2022-11-14T07:57:43;32.90;;;13.17;;
179;SDS011;78;48.788;9.010;2022-11-14T08:00:09;35.53;;;13.30;;
179;SDS011;78;48.788;9.010;2022-11-14T08:02:35;34.80;;;14.10;;
179;SDS011;78;48.788;9.010;2022-11-14T08:05:01;35.80;;;13.20;;
179;SDS011;78;48.788;9.010;2022-11-14T08:07:27;33.87;;;13.90;;
179;SDS011;78;48.788;9.010;2022-11-14T08:09:53;36.03;;;14.60;;
179;SDS011;78;48.788;9.010;2022-11-14T08:12:19;39.13;;;14.27;;
179;SDS011;78;48.788;9.010;2022-11-14T08:14:45;32.43;;;12.57;;
179;SDS011;78;48.788;9.010;2022-11-14T08:17:11;35.30;;;14.17;;
179;SDS011;78;48.788;9.010;2022-11-14T08:19:37;32.03;;;12.07;;
179;SDS011;78;48.788;9.010;2022-11-14T08:22:03;34.93;;;12.60;;
179;SDS011;78;48.788;9.010;2022-11-14T08:24:29;30.43;;;11.63;;
179;SDS011;78;48.788;9.010;2022-11-14T08:26:55;31.17;;;12.00;;
179;SDS011;78;48.788;9.010;2022-11-14T08:29:21;28.70;;;10.37;;
179;SDS011;78;48.788;9.010;2022-11-14T08:31:47;25.07;;;8.93;;
179;SDS011;78;48.788;9.010;2022-11-14T08:34:13;24.40;;;8.03;;
179;SDS011;78;48.788;9.010;2022-11-14T08:36:39;29.57;;;9.30;;
179;SDS011;78;48.788;9.010;2022-11-14T08:39:06;24.30;;;7.90;;
179;SDS011;78;48.788;9.010;2022-11-14T08:41:32;22.87;;;7.33;;
179;SDS011;78;48.788;9.010;2022-11-14T08:43:58;22.80;;;6.43;;
179;SDS011;78;48.788;9.010;2022-11-14T08:46:24;21.27;;;6.70;;
179;SDS011;78;48.788;9.010;2022-11-14T08:48:50;20.03;;;5.77;;
179;SDS011;78;48.788;9.010;2022-11-14T08:51:16;19.13;;;5.10;;
179;SDS011;78;48.788;9.010;2022-11-14T08:53:42;20.37;;;4.50;;
179;SDS011;78;48.788;9.010;2022-11-14T08:56:08;17.07;;;4.40;;
179;SDS011;78;48.788;9.010;2022-11-14T08:58:35;21.10;;;5.00;;
179;SDS011;78;48.788;9.010;2022-11-14T09:01:02;18.43;;;4.30;;
179;SDS011;78;48.788;9.010;2022-11-14T09:03:28;17.77;;;4.30;;
179;SDS011;78;48.788;9.010;2022-11-14T09:05:54;17.83;;;3.73;;
179;SDS011;78;48.788;9.010;2022-11-14T09:08:20;17.70;;;4.07;;
179;SDS011;78;48.788;9.010;2022-11-14T09:10:46;15.77;;;3.50;;
179;SDS011;78;48.788;9.010;2022-11-14T09:13:12;17.50;;;3.80;;
179;SDS011;78;48.788;9.010;2022-11-14T09:15:38;16.93;;;3.70;;
179;SDS011;78;48.788;9.010;2022-11-14T09:18:04;15.60;;;3.40;;
179;SDS011;78;48.788;9.010;2022-11-14T09:20:30;19.23;;;3.53;;
179;SDS011;78;48.788;9.010;2022-11-14T09:22:57;18.87;;;4.37;;
179;SDS011;78;48.788;9.010;2022-11-14T09:25:23;17.10;;;4.00;;
179;SDS011;78;48.788;9.010;2022-11-14T09:27:50;18.30;;;4.17;;
179;SDS011;78;48.788;9.010;2022-11-14T09:30:16;18.13;;;3.90;;
179;SDS011;78;48.788;9.010;2022-11-14T09:32:43;21.30;;;4.57;;
179;SDS011;78;48.788;9.010;2022-11-14T09:35:09;17.20;;;3.97;;
179;SDS011;78;48.788;9.010;2022-11-14T09:37:36;19.60;;;3.93;;
179;SDS011;78;48.788;9.010;2022-11-14T09:40:03;18.80;;;3.83;;
179;SDS011;78;48.788;9.010;2022-11-14T09:45:14;18.30;;;3.73;;
179;SDS011;78;48.788;9.010;2022-11-14T09:47:41;17.63;;;3.60;;
179;SDS011;78;48.788;9.010;2022-11-14T09:52:43;18.80;;;3.80;;
179;SDS011;78;48.788;9.010;2022-11-14T09:55:30;21.47;;;4.17;;
179;SDS011;78;48.788;9.010;2022-11-14T09:57:57;18.60;;;4.17;;
179;SDS011;78;48.788;9.010;2022-11-14T10:00:24;16.63;;;3.63;;
179;SDS011;78;48.788;9.010;2022-11-14T10:18:11;15.67;;;3.60;;
179;SDS011;78;48.788;9.010;2022-11-14T10:36:20;17.30;;;3.70;;
179;SDS011;78;48.788;9.010;2022-11-14T10:39:00;16.37;;;3.90;;
179;SDS011;78;48.788;9.010;2022-11-14T10:41:27;21.53;;;3.83;;
179;SDS011;78;48.788;9.010;2022-11-14T10:43:54;17.20;;;3.43;;
179;SDS011;78;48.788;9.010;2022-11-14T10:46:31;18.70;;;3.70;;
179;SDS011;78;48.788;9.010;2022-11-14T10:48:58;15.90;;;3.20;;
179;SDS011;78;48.788;9.010;2022-11-14T10:54:05;18.23;;;3.60;;
179;SDS011;78;48.788;9.010;2022-11-14T10:56:47;20.40;;;3.73;;
179;SDS011;78;48.788;9.010;2022-11-14T10:59:13;16.03;;;3.43;;
179;SDS011;78;48.788;9.010;2022-11-14T11:01:40;16.10;;;3.40;;
179;SDS011;78;48.788;9.010;2022-11-14T11:06:45;17.80;;;3.30;;
179;SDS011;78;48.788;9.010;2022-11-14T11:09:16;16.00;;;3.23;;
179;SDS011;78;48.788;9.010;2022-11-14T11:12:01;15.33;;;3.20;;
179;SDS011;78;48.788;9.010;2022-11-14T11:14:28;15.27;;;3.30;;
179;SDS011;78;48.788;9.010;2022-11-14T11:19:36;15.33;;;3.20;;
179;SDS011;78;48.788;9.010;2022-11-14T11:22:02;15.50;;;3.00;;
179;SDS011;78;48.788;9.010;2022-11-14T11:24:32;16.63;;;3.20;;
179;SDS011;78;48.788;9.010;2022-11-14T11:27:11;15.63;;;3.13;;
179;SDS011;78;48.788;9.010;2022-11-14T11:29:37;15.90;;;3.17;;
179;SDS011;78;48.788;9.010;2022-11-14T11:32:03;14.90;;;3.00;;
179;SDS011;78;48.788;9.010;2022-11-14T11:34:30;15.20;;;3.20;;
179;SDS011;78;48.788;9.010;2022-11-14T11:37:04;16.90;;;3.20;;
179;SDS011;78;48.788;9.010;2022-11-14T11:39:33;15.60;;;3.40;;
179;SDS011;78;48.788;9.010;2022-11-14T11:42:01;15.40;;;2.90;;
179;SDS011;78;48.788;9.010;2022-11-14T11:44:34;19.70;;;5.27;;
179;SDS011;78;48.788;9.010;2022-11-14T11:47:02;19.80;;;4.73;;
179;SDS011;78;48.788;9.010;2022-11-14T11:51:55;15.90;;;3.00;;
179;SDS011;78;48.788;9.010;2022-11-14T11:54:23;17.27;;;3.60;;
179;SDS011;78;48.788;9.010;2022-11-14T11:56:51;15.20;;;3.30;;
179;SDS011;78;48.788;9.010;2022-11-14T11:59:25;16.30;;;3.10;;
179;SDS011;78;48.788;9.010;2022-11-14T12:01:53;15.00;;;3.00;;
179;SDS011;78;48.788;9.010;2022-11-14T12:04:19;15.73;;;3.10;;
179;SDS011;78;48.788;9.010;2022-11-14T12:07:32;15.23;;;2.90;;
179;SDS011;78;48.788;9.010;2022-11-14T12:09:32;16.20;;;3.40;;
179;SDS011;78;48.788;9.010;2022-11-14T12:12:02;15.57;;;3.10;;
179;SDS011;78;48.788;9.010;2022-11-14T12:14:33;18.20;;;3.40;;
179;SDS011;78;48.788;9.010;2022-11-14T12:28:53;18.40;;;2.90;;
179;SDS011;78;48.788;9.010;2022-11-14T12:30:54;18.80;;;3.40;;
179;SDS011;78;48.788;9.010;2022-11-14T12:33:42;15.27;;;2.93;;
179;SDS011;78;48.788;9.010;2022-11-14T12:36:10;14.87;;;2.80;;
179;SDS011;78;48.788;9.010;2022-11-14T12:38:41;17.23;;;3.17;;
179;SDS011;78;48.788;9.010;2022-11-14T12:41:08;14.80;;;2.90;;
179;SDS011;78;48.788;9.010;2022-11-14T12:43:38;16.90;;;3.13;;
179;SDS011;78;48.788;9.010;2022-11-14T12:46:06;17.10;;;3.00;;
179;SDS011;78;48.788;9.010;2022-11-14T12:48:37;16.10;;;3.20;;
179;SDS011;78;48.788;9.010;2022-11-14T12:51:04;16.27;;;3.50;;
179;SDS011;78;48.788;9.010;2022-11-14T13:03:44;16.07;;;3.20;;
179;SDS011;78;48.788;9.010;2022-11-14T13:06:18;17.33;;;3.30;;
179;SDS011;78;48.788;9.010;2022-11-14T13:08:51;21.53;;;3.70;;
179;SDS011;78;48.788;9.010;2022-11-14T13:14:14;17.00;;;3.63;;
179;SDS011;78;48.788;9.010;2022-11-14T13:19:53;16.40;;;3.40;;
179;SDS011;78;48.788;9.010;2022-11-14T13:22:43;18.40;;;3.60;;
179;SDS011;78;48.788;9.010;2022-11-14T13:27:35;16.73;;;3.43;;
179;SDS011;78;48.788;9.010;2022-11-14T13:30:04;17.90;;;3.27;;
179;SDS011;78;48.788;9.010;2022-11-14T13:35:17;18.23;;;3.50;;
179;SDS011;78;48.788;9.010;2022-11-14T13:50:55;16.47;;;3.70;;
179;SDS011;78;48.788;9.010;2022-11-14T13:53:22;17.60;;;3.83;;
179;SDS011;78;48.788;9.010;2022-11-14T13:58:25;16.00;;;3.33;;
179;SDS011;78;48.788;9.010;2022-11-14T14:00:56;18.73;;;3.90;;
179;SDS011;78;48.788;9.010;2022-11-14T14:03:48;16.60;;;3.80;;
179;SDS011;78;48.788;9.010;2022-11-14T14:23:52;17.80;;;4.00;;
179;SDS011;78;48.788;9.010;2022-11-14T14:26:28;19.17;;;3.80;;
179;SDS011;78;48.788;9.010;2022-11-14T14:31:22;16.83;;;3.90;;
179;SDS011;78;48.788;9.010;2022-11-14T14:33:49;17.90;;;4.20;;
179;SDS011;78;48.788;9.010;2022-11-14T14:36:25;18.70;;;3.83;;
179;SDS011;78;48.788;9.010;2022-11-14T14:41:36;16.53;;;3.80;;
179;SDS011;78;48.788;9.010;2022-11-14T14:44:02;19.87;;;4.03;;
179;SDS011;78;48.788;9.010;2022-11-14T14:46:28;17.00;;;4.07;;
179;SDS011;78;48.788;9.010;2022-11-14T14:48:55;17.30;;;4.00;;
179;SDS011;78;48.788;9.010;2022-11-14T14:51:33;19.93;;;4.10;;
179;SDS011;78;48.788;9.010;2022-11-14T14:53:59;17.87;;;4.30;;
179;SDS011;78;48.788;9.010;2022-11-14T14:56:25;17.83;;;4.50;;
179;SDS011;78;48.788;9.010;2022-11-14T14:58:52;18.23;;;4.20;;
179;SDS011;78;48.788;9.010;2022-11-14T15:01:19;19.43;;;4.07;;
179;SDS011;78;48.788;9.010;2022-11-14T15:03:51;20.03;;;4.13;;
179;SDS011;78;48.788;9.010;2022-11-14T15:08:53;17.20;;;4.17;;
179;SDS011;78;48.788;9.010;2022-11-14T15:11:20;19.80;;;4.40;;
179;SDS011;78;48.788;9.010;2022-11-14T15:13:47;17.70;;;3.87;;
179;SDS011;78;48.788;9.010;2022-11-14T15:16:14;18.63;;;4.60;;
179;SDS011;78;48.788;9.010;2022-11-14T15:18:40;17.67;;;4.40;;
179;SDS011;78;48.788;9.010;2022-11-14T15:23:33;17.90;;;4.30;;
179;SDS011;78;48.788;9.010;2022-11-14T15:26:02;19.67;;;4.53;;
179;SDS011;78;48.788;9.010;2022-11-14T15:28:28;20.00;;;4.50;;
179;SDS011;78;48.788;9.010;2022-11-14T15:30:55;16.90;;;4.37;;
179;SDS011;78;48.788;9.010;2022-11-14T15:33:25;19.77;;;5.07;;
179;SDS011;78;48.788;9.010;2022-11-14T15:36:08;18.07;;;4.63;;
179;SDS011;78;48.788;9.010;2022-11-14T15:38:35;19.37;;;5.10;;
179;SDS011;78;48.788;9.010;2022-11-14T15:41:34;21.33;;;4.60;;
179;SDS011;78;48.788;9.010;2022-11-14T15:43:54;22.20;;;5.00;;
179;SDS011;78;48.788;9.010;2022-11-14T15:46:26;19.23;;;4.90;;
179;SDS011;78;48.788;9.010;2022-11-14T15:48:53;24.60;;;5.20;;
179;SDS011;78;48.788;9.010;2022-11-14T15:51:39;22.10;;;4.63;;
179;SDS011;78;48.788;9.010;2022-11-14T15:54:26;19.10;;;4.73;;
179;SDS011;78;48.788;9.010;2022-11-14T15:56:53;18.70;;;5.00;;
179;SDS011;78;48.788;9.010;2022-11-14T15:59:19;21.80;;;5.60;;
179;SDS011;78;48.788;9.010;2022-11-14T16:01:47;21.70;;;5.27;;
179;SDS011;78;48.788;9.010;2022-11-14T16:04:17;21.30;;;6.00;;
179;SDS011;78;48.788;9.010;2022-11-14T16:06:43;21.87;;;5.53;;
179;SDS011;78;48.788;9.010;2022-11-14T16:09:13;24.60;;;5.20;;
179;SDS011;78;48.788;9.010;2022-11-14T16:11:39;22.00;;;4.70;;
179;SDS011;78;48.788;9.010;2022-11-14T16:14:05;22.40;;;5.80;;
179;SDS011;78;48.788;9.010;2022-11-14T16:16:31;20.90;;;5.17;;
179;SDS011;78;48.788;9.010;2022-11-14T16:18:57;23.27;;;5.40;;
179;SDS011;78;48.788;9.010;2022-11-14T16:21:23;19.63;;;5.17;;
179;SDS011;78;48.788;9.010;2022-11-14T16:23:49;20.57;;;5.20;;
179;SDS011;78;48.788;9.010;2022-11-14T16:26:15;20.00;;;5.17;;
179;SDS011;78;48.788;9.010;2022-11-14T16:28:41;21.60;;;5.57;;
179;SDS011;78;48.788;9.010;2022-11-14T16:31:10;20.97;;;5.73;;
179;SDS011;78;48.788;9.010;2022-11-14T16:33:36;21.50;;;5.30;;
179;SDS011;78;48.788;9.010;2022-11-14T16:36:02;20.53;;;5.37;;
179;SDS011;78;48.788;9.010;2022-11-14T16:38:28;20.63;;;5.13;;
179;SDS011;78;48.788;9.010;2022-11-14T16:40:54;18.63;;;5.00;;
179;SDS011;78;48.788;9.010;2022-11-14T16:43:20;22.57;;;5.70;;
179;SDS011;78;48.788;9.010;2022-11-14T16:45:46;19.17;;;5.53;;
179;SDS011;78;48.788;9.010;2022-11-14T16:48:12;19.60;;;5.33;;
179;SDS011;78;48.788;9.010;2022-11-14T16:50:38;25.73;;;6.30;;
179;SDS011;78;48.788;9.010;2022-11-14T16:53:04;21.10;;;5.43;;
179;SDS011;78;48.788;9.010;2022-11-14T16:55:30;22.07;;;5.37;;
179;SDS011;78;48.788;9.010;2022-11-14T16:57:56;21.23;;;5.77;;
179;SDS011;78;48.788;9.010;2022-11-14T17:00:22;19.63;;;5.40;;
179;SDS011;78;48.788;9.010;2022-11-14T17:02:48;24.40;;;5.93;;
179;SDS011;78;48.788;9.010;2022-11-14T17:05:14;19.57;;;5.67;;
179;SDS011;78;48.788;9.010;2022-11-14T17:07:40;20.43;;;5.37;;
179;SDS011;78;48.788;9.010;2022-11-14T17:10:06;19.70;;;5.67;;
179;SDS011;78;48.788;9.010;2022-11-14T17:12:32;23.47;;;5.97;;
179;SDS011;78;48.788;9.010;2022-11-14T17:14:58;20.03;;;5.63;;
179;SDS011;78;48.788;9.010;2022-11-14T17:17:24;21.07;;;5.77;;
179;SDS011;78;48.788;9.010;2022-11-14T17:19:50;26.40;;;5.83;;
179;SDS011;78;48.788;9.010;2022-11-14T17:22:17;23.40;;;6.70;;
179;SDS011;78;48.788;9.010;2022-11-14T17:24:43;21.83;;;6.27;;
179;SDS011;78;48.788;9.010;2022-11-14T17:27:10;21.13;;;5.73;;
179;SDS011;78;48.788;9.010;2022-11-14T17:29:37;22.00;;;6.17;;
179;SDS011;78;48.788;9.010;2022-11-14T17:32:03;20.93;;;6.07;;
179;SDS011;78;48.788;9.010;2022-11-14T17:34:29;21.30;;;6.40;;
179;SDS011;78;48.788;9.010;2022-11-14T17:36:56;21.60;;;6.13;;
179;SDS011;78;48.788;9.010;2022-11-14T17:39:22;21.00;;;6.33;;
179;SDS011;78;48.788;9.010;2022-11-14T17:41:48;20.27;;;5.63;;
179;SDS011;78;48.788;9.010;2022-11-14T17:44:14;20.93;;;5.90;;